Time,TemperatureF,DewpointF,PressureIn,WindDirection,WindDirectionDegrees,WindSpeedMPH,WindSpeedGustMPH,Humidity,HourlyPrecipIn,Conditions,Clouds,dailyrainin,SoftwareType,DateUTC
2014-12-22 00:01:00,42.1,40.5,29.67,SE,143,2.0,2.0,94,0.00,,,0.00,Wunderground v.1.15,2014-12-22 06:01:00,
2014-12-22 00:10:00,42.1,40.5,29.67,ESE,122,2.0,3.0,94,0.00,,,0.00,Wunderground v.1.15,2014-12-22 06:10:00,
2014-12-22 00:20:00,42.1,40.5,29.67,ESE,118,3.0,5.0,94,0.00,,,0.00,Wunderground v.1.15,2014-12-22 06:20:00,
2014-12-22 00:26:00,42.2,41.0,29.66,SSW,193,2.0,9.0,94,0.00,,,0.00,weatherlink.com 1.10,2014-12-22 06:26:00,
2014-12-22 00:35:00,42.1,40.5,29.66,South,170,2.0,3.0,94,0.00,,,0.00,Wunderground v.1.15,2014-12-22 06:35:00,
2014-12-22 00:41:00,42.2,41.0,29.65,South,174,1.0,6.0,94,0.00,,,0.00,weatherlink.com 1.10,2014-12-22 06:41:00,
2014-12-22 00:50:00,42.2,40.6,29.65,SE,134,3.0,6.0,94,0.00,,,0.00,Wunderground v.1.15,2014-12-22 06:50:00,
2014-12-22 00:55:00,42.2,40.6,29.65,SSE,156,3.0,6.0,94,0.00,,,0.00,Wunderground v.1.15,2014-12-22 06:55:00,
2014-12-22 01:00:00,42.2,40.6,29.65,SSE,148,3.0,3.0,94,0.00,,,0.00,Wunderground v.1.15,2014-12-22 07:00:00,
2014-12-22 01:10:00,42.2,40.6,29.65,SSE,163,3.0,3.0,94,0.00,,,0.00,Wunderground v.1.15,2014-12-22 07:10:00,
2014-12-22 01:20:00,42.2,40.6,29.64,SE,144,2.0,3.0,94,0.00,,,0.00,Wunderground v.1.15,2014-12-22 07:20:00,
2014-12-22 01:27:00,42.2,41.0,29.64,SSE,151,3.0,7.0,94,0.00,,,0.00,weatherlink.com 1.10,2014-12-22 07:27:00,
2014-12-22 01:35:00,42.2,40.6,29.64,South,172,2.0,2.0,94,0.00,,,0.00,Wunderground v.1.15,2014-12-22 07:35:00,
2014-12-22 01:40:00,42.2,40.6,29.64,SSE,153,3.0,3.0,94,0.00,,,0.00,Wunderground v.1.15,2014-12-22 07:40:00,
2014-12-22 01:50:00,42.3,40.7,29.63,South,189,3.0,3.0,94,0.00,,,0.00,Wunderground v.1.15,2014-12-22 07:50:00,
2014-12-22 01:55:00,42.3,40.7,29.64,SSE,159,3.0,3.0,94,0.00,,,0.00,Wunderground v.1.15,2014-12-22 07:55:00,
2014-12-22 02:05:00,42.3,40.7,29.63,SSE,165,2.0,3.0,94,0.00,,,0.00,Wunderground v.1.15,2014-12-22 08:05:00,
2014-12-22 02:14:00,42.2,41.0,29.63,South,174,2.0,7.0,94,0.01,,,0.01,weatherlink.com 1.10,2014-12-22 08:14:00,
2014-12-22 02:20:00,42.2,40.6,29.63,SE,144,2.0,2.0,94,0.00,,,0.01,Wunderground v.1.15,2014-12-22 08:20:00,
2014-12-22 02:26:00,42.2,40.6,29.63,South,184,2.0,2.0,94,0.00,,,0.01,Wunderground v.1.15,2014-12-22 08:26:00,
2014-12-22 02:35:00,42.2,40.6,29.63,SE,142,3.0,3.0,94,0.00,,,0.01,Wunderground v.1.15,2014-12-22 08:35:00,
2014-12-22 02:40:00,42.2,40.6,29.63,SSE,156,3.0,3.0,94,0.00,,,0.01,Wunderground v.1.15,2014-12-22 08:40:00,
2014-12-22 02:50:00,42.2,40.6,29.63,SSE,149,2.0,2.0,94,0.00,,,0.01,Wunderground v.1.15,2014-12-22 08:50:00,
2014-12-22 02:56:00,42.2,40.6,29.63,SE,145,2.0,3.0,94,0.00,,,0.01,Wunderground v.1.15,2014-12-22 08:56:00,
2014-12-22 03:05:00,42.1,40.5,29.62,South,172,2.0,3.0,94,0.00,,,0.02,Wunderground v.1.15,2014-12-22 09:05:00,
2014-12-22 03:10:00,42.1,40.5,29.62,SW,215,2.0,2.0,94,0.00,,,0.02,Wunderground v.1.15,2014-12-22 09:10:00,
2014-12-22 03:15:00,42.1,40.5,29.62,SSW,203,2.0,2.0,94,0.00,,,0.02,Wunderground v.1.15,2014-12-22 09:15:00,
2014-12-22 03:25:00,42.0,40.4,29.62,SE,141,2.0,2.0,94,0.00,,,0.03,Wunderground v.1.15,2014-12-22 09:25:00,
2014-12-22 03:35:00,42.0,40.4,29.61,SSE,166,2.0,2.0,94,0.00,,,0.03,Wunderground v.1.15,2014-12-22 09:35:00,
2014-12-22 03:41:00,41.9,40.3,29.61,SSE,149,2.0,2.0,94,0.00,,,0.03,Wunderground v.1.15,2014-12-22 09:41:00,
2014-12-22 03:50:00,41.8,40.2,29.60,SE,134,2.0,5.0,94,0.00,,,0.04,Wunderground v.1.15,2014-12-22 09:50:00,
2014-12-22 03:55:00,41.8,40.2,29.60,SSE,149,2.0,2.0,94,0.00,,,0.04,Wunderground v.1.15,2014-12-22 09:55:00,
2014-12-22 04:01:00,41.8,40.0,29.60,SSE,162,1.0,6.0,94,0.02,,,0.04,weatherlink.com 1.10,2014-12-22 10:01:00,
2014-12-22 04:15:00,41.7,40.1,29.60,SE,139,2.0,2.0,94,0.00,,,0.05,Wunderground v.1.15,2014-12-22 10:15:00,
2014-12-22 04:25:00,41.7,40.1,29.59,South,177,2.0,3.0,94,0.00,,,0.05,Wunderground v.1.15,2014-12-22 10:25:00,
2014-12-22 04:30:00,41.6,40.0,29.59,ESE,106,2.0,5.0,94,0.00,,,0.05,Wunderground v.1.15,2014-12-22 10:30:00,
2014-12-22 04:45:00,41.5,39.9,29.59,SE,125,3.0,4.0,94,0.00,,,0.06,Wunderground v.1.15,2014-12-22 10:45:00,
2014-12-22 04:50:00,41.5,39.9,29.59,SSE,150,2.0,4.0,94,0.00,,,0.06,Wunderground v.1.15,2014-12-22 10:50:00,
2014-12-22 05:00:00,41.5,39.9,29.58,South,187,3.0,4.0,94,0.00,,,0.07,Wunderground v.1.15,2014-12-22 11:00:00,
2014-12-22 05:05:00,41.5,39.9,29.58,ESE,121,2.0,4.0,94,0.00,,,0.07,Wunderground v.1.15,2014-12-22 11:05:00,
2014-12-22 05:15:00,41.4,39.8,29.58,ENE,64,2.0,4.0,94,0.00,,,0.07,Wunderground v.1.15,2014-12-22 11:15:00,
2014-12-22 05:25:00,41.4,39.8,29.58,SE,143,2.0,2.0,94,0.00,,,0.07,Wunderground v.1.15,2014-12-22 11:25:00,
2014-12-22 05:30:00,41.4,39.8,29.58,South,188,2.0,2.0,94,0.00,,,0.07,Wunderground v.1.15,2014-12-22 11:30:00,
2014-12-22 05:40:00,41.4,39.8,29.58,SSE,166,2.0,4.0,94,0.00,,,0.08,Wunderground v.1.15,2014-12-22 11:40:00,
2014-12-22 05:47:00,41.4,40.0,29.57,SE,136,1.0,8.0,94,0.02,,,0.08,weatherlink.com 1.10,2014-12-22 11:47:00,
2014-12-22 06:00:00,41.4,39.8,29.57,SE,142,3.0,3.0,94,0.04,,,0.09,Wunderground v.1.15,2014-12-22 12:00:00,
2014-12-22 06:10:00,41.4,39.8,29.57,SSW,197,3.0,3.0,94,0.05,,,0.10,Wunderground v.1.15,2014-12-22 12:10:00,
2014-12-22 06:17:00,41.4,40.0,29.57,SSE,153,2.0,8.0,94,0.04,,,0.11,weatherlink.com 1.10,2014-12-22 12:17:00,
2014-12-22 06:25:00,41.4,39.8,29.57,ESE,120,2.0,3.0,94,0.05,,,0.11,Wunderground v.1.15,2014-12-22 12:25:00,
2014-12-22 06:33:00,41.4,40.0,29.57,SSE,149,2.0,5.0,94,0.05,,,0.12,weatherlink.com 1.10,2014-12-22 12:33:00,
2014-12-22 06:41:00,41.3,39.7,29.57,SSE,162,1.0,2.0,94,0.05,,,0.13,Wunderground v.1.15,2014-12-22 12:41:00,
2014-12-22 06:48:00,41.2,40.0,29.57,South,172,1.0,5.0,94,0.05,,,0.13,weatherlink.com 1.10,2014-12-22 12:48:00,
2014-12-22 06:55:00,41.1,39.5,29.57,South,181,1.0,3.0,94,0.06,,,0.14,Wunderground v.1.15,2014-12-22 12:55:00,
2014-12-22 07:03:00,41.1,40.0,29.57,SSE,158,1.0,5.0,94,0.05,,,0.15,weatherlink.com 1.10,2014-12-22 13:03:00,
2014-12-22 07:10:00,41.0,39.4,29.57,SSW,201,1.0,1.0,94,0.07,,,0.16,Wunderground v.1.15,2014-12-22 13:10:00,
2014-12-22 07:18:00,41.0,39.0,29.57,SE,125,0.0,4.0,94,0.06,,,0.17,weatherlink.com 1.10,2014-12-22 13:18:00,
2014-12-22 07:25:00,40.9,39.3,29.57,SE,138,1.0,1.0,94,0.07,,,0.17,Wunderground v.1.15,2014-12-22 13:25:00,
2014-12-22 07:30:00,40.9,39.3,29.57,SE,146,1.0,1.0,94,0.07,,,0.18,Wunderground v.1.15,2014-12-22 13:30:00,
2014-12-22 07:45:00,40.8,39.2,29.57,SSE,156,2.0,3.0,94,0.07,,,0.20,Wunderground v.1.15,2014-12-22 13:45:00,
2014-12-22 07:50:00,40.8,39.2,29.57,SSE,163,2.0,3.0,94,0.07,,,0.20,Wunderground v.1.15,2014-12-22 13:50:00,
2014-12-22 08:00:00,40.8,39.2,29.56,SSE,149,2.0,2.0,94,0.05,,,0.21,Wunderground v.1.15,2014-12-22 14:00:00,
2014-12-22 08:05:00,40.8,39.2,29.56,South,186,2.0,2.0,94,0.05,,,0.21,Wunderground v.1.15,2014-12-22 14:05:00,
2014-12-22 08:15:00,40.8,39.2,29.56,ESE,118,2.0,4.0,94,0.07,,,0.23,Wunderground v.1.15,2014-12-22 14:15:00,
2014-12-22 08:25:00,40.8,39.2,29.55,SE,145,2.0,2.0,94,0.08,,,0.24,Wunderground v.1.15,2014-12-22 14:25:00,
2014-12-22 08:35:00,40.8,39.2,29.55,SE,143,2.0,2.0,94,0.08,,,0.25,Wunderground v.1.15,2014-12-22 14:35:00,
2014-12-22 08:45:00,40.8,39.2,29.55,SSE,158,1.0,2.0,94,0.06,,,0.26,Wunderground v.1.15,2014-12-22 14:45:00,
2014-12-22 08:50:00,40.8,39.2,29.54,ESE,115,2.0,2.0,94,0.06,,,0.27,Wunderground v.1.15,2014-12-22 14:50:00,
2014-12-22 09:00:00,40.8,39.2,29.54,SSE,167,1.0,3.0,94,0.05,,,0.28,Wunderground v.1.15,2014-12-22 15:00:00,
2014-12-22 09:06:00,40.8,39.0,29.54,SE,138,1.0,5.0,94,0.06,,,0.28,weatherlink.com 1.10,2014-12-22 15:06:00,
2014-12-22 09:15:00,40.8,39.2,29.54,SW,221,2.0,4.0,94,0.05,,,0.29,Wunderground v.1.15,2014-12-22 15:15:00,